Time;durP1;ratioP1;P1;durP2;ratioP2;P2;SDS_P1;SDS_P2;PMS_P1;PMS_P2;Temp;Humidity;BMP_temperature;BMP_pressure;BME280_temperature;BME280_humidity;BME280_pressure;Samples;Min_cycle;Max_cycle;Signal;HPM_P1;HPM_P2
2022/01/25 00:10:12;;;;;;;42.00;16.77;;;;;;;3.48;94.64;103499.75;5026445;28;20037;-76
2022/01/25 00:16:07;;;;;;;35.55;15.68;;;;;;;3.55;94.71;103483.06;5024718;28;20037;-77
2022/01/25 00:26:30;;;;;;;38.47;17.50;;;;;;;3.46;94.89;103483.25;5014121;28;20049;-77
2022/01/25 00:29:12;;;;;;;39.38;17.00;;;;;;;3.26;94.46;103439.41;5024754;28;20026;-77
2022/01/25 00:31:39;;;;;;;41.75;18.25;;;;;;;3.57;94.77;103460.38;5008767;28;20127;-77
2022/01/25 00:34:05;;;;;;;41.40;17.83;;;;;;;3.43;94.54;103444.19;5021747;28;20045;-77
2022/01/25 00:36:31;;;;;;;39.30;17.27;;;;;;;3.58;94.47;103464.69;5024505;28;20378;-77
2022/01/25 00:38:57;;;;;;;38.58;18.20;;;;;;;3.55;94.33;103462.16;5027134;28;20042;-77
2022/01/25 00:41:24;;;;;;;36.83;17.48;;;;;;;3.39;94.23;103442.56;5026738;28;20084;-78
2022/01/25 00:43:51;;;;;;;38.78;16.17;;;;;;;3.53;94.00;103468.28;5023114;28;20034;-77
2022/01/25 00:46:19;;;;;;;35.67;16.23;;;;;;;3.56;94.93;103461.25;5065077;28;20035;-77
2022/01/25 00:48:48;;;;;;;40.97;17.50;;;;;;;3.56;94.92;103455.19;5085427;28;20041;-77
2022/01/25 00:54:00;;;;;;;34.95;16.70;;;;;;;3.50;94.26;103470.09;5107959;28;21015;-77
2022/01/25 00:56:30;;;;;;;36.28;17.17;;;;;;;3.54;95.04;103470.03;5105510;28;20031;-77
2022/01/25 00:58:57;;;;;;;36.67;16.38;;;;;;;3.49;94.50;103452.72;5104453;28;20048;-77
2022/01/25 01:01:23;;;;;;;36.45;16.92;;;;;;;3.63;93.95;103472.38;5085481;28;20046;-78
2022/01/25 01:03:49;;;;;;;40.83;16.83;;;;;;;3.57;94.58;103470.81;5085492;28;20024;-78
2022/01/25 01:06:15;;;;;;;41.50;17.63;;;;;;;3.55;94.29;103462.16;5103633;28;20376;-78
2022/01/25 01:08:41;;;;;;;42.60;19.10;;;;;;;3.33;93.65;103447.94;5086654;28;20023;-77
2022/01/25 01:11:11;;;;;;;41.15;18.77;;;;;;;3.44;93.53;103472.88;5068121;28;20118;-77
2022/01/25 01:30:25;;;;;;;43.85;19.77;;;;;;;3.25;94.30;103437.69;5016330;28;20049;-77
2022/01/25 01:43:52;;;;;;;42.13;19.83;;;;;;;3.15;94.63;103425.75;5032440;28;20029;-77
2022/01/25 01:48:49;;;;;;;38.50;17.90;;;;;;;3.28;95.41;103448.03;5016333;28;20042;-77
2022/01/25 01:51:17;;;;;;;43.22;16.77;;;;;;;3.20;94.94;103413.44;5017769;28;20033;-77
2022/01/25 01:53:44;;;;;;;44.10;19.73;;;;;;;3.35;95.08;103440.91;5040813;28;20033;-77
2022/01/25 01:56:10;;;;;;;42.28;19.85;;;;;;;3.34;94.80;103442.66;5089470;28;20028;-77
2022/01/25 01:58:37;;;;;;;35.95;16.75;;;;;;;3.29;94.64;103447.16;5101973;28;20127;-77
2022/01/25 02:01:06;;;;;;;36.47;17.05;;;;;;;3.37;94.49;103446.94;5093471;28;20036;-77
2022/01/25 02:03:31;;;;;;;40.45;18.05;;;;;;;3.26;94.88;103448.06;5104882;28;20463;-77
2022/01/25 02:05:57;;;;;;;39.42;17.48;;;;;;;3.19;95.08;103427.41;5082928;28;20065;-77
2022/01/25 02:08:22;;;;;;;45.08;21.17;;;;;;;3.32;94.71;103443.63;5067219;28;20055;-77
2022/01/25 02:10:47;;;;;;;34.70;16.83;;;;;;;3.40;94.78;103446.91;5082632;28;20031;-77
2022/01/25 02:13:13;;;;;;;38.97;18.23;;;;;;;3.46;95.05;103441.50;5109118;28;20063;-77
2022/01/25 02:15:44;;;;;;;40.08;17.92;;;;;;;3.44;94.57;103432.84;5106498;28;20081;-77
2022/01/25 02:23:37;;;;;;;37.42;18.35;;;;;;;3.51;94.17;103439.63;5107585;28;20043;-77
2022/01/25 02:26:05;;;;;;;41.90;17.27;;;;;;;3.53;94.96;103436.97;5087481;28;20028;-77
2022/01/25 02:28:34;;;;;;;41.97;17.73;;;;;;;3.32;94.27;103402.69;5104554;28;20031;-77
2022/01/25 02:31:00;;;;;;;39.45;16.33;;;;;;;3.62;94.95;103437.59;5088423;28;20027;-77
2022/01/25 02:33:26;;;;;;;37.90;16.80;;;;;;;3.61;94.35;103435.84;5108693;28;20029;-77
2022/01/25 02:35:54;;;;;;;42.88;18.08;;;;;;;3.61;95.29;103441.09;5106908;28;20051;-77
2022/01/25 02:38:25;;;;;;;41.70;17.63;;;;;;;3.62;94.77;103445.41;5105162;28;20047;-77
2022/01/25 02:40:51;;;;;;;44.15;18.58;;;;;;;3.65;95.01;103440.09;5106887;27;20253;-77
2022/01/25 02:43:19;;;;;;;39.85;16.00;;;;;;;3.65;94.62;103429.66;5087486;28;20015;-77
2022/01/25 02:46:06;;;;;;;37.33;15.95;;;;;;;3.68;94.46;103437.44;5103715;28;20028;-77
2022/01/25 02:48:31;;;;;;;44.55;18.70;;;;;;;3.45;94.30;103408.47;5105666;28;20498;-77
2022/01/25 02:50:59;;;;;;;37.78;16.55;;;;;;;3.67;94.38;103446.16;5085321;28;20027;-77
2022/01/25 02:53:25;;;;;;;43.75;18.15;;;;;;;3.65;93.83;103441.88;5105853;28;20034;-77
2022/01/25 02:55:50;;;;;;;38.13;18.25;;;;;;;3.65;94.76;103436.63;5106945;28;20372;-77
2022/01/25 02:58:16;;;;;;;42.35;18.63;;;;;;;3.66;94.95;103439.22;5104944;28;20046;-77
2022/01/25 03:00:41;;;;;;;40.85;19.98;;;;;;;3.54;94.24;103417.81;5088052;28;20483;-77
2022/01/25 03:03:06;;;;;;;38.60;18.02;;;;;;;3.60;94.84;103428.94;5106356;28;20383;-78
2022/01/25 03:05:32;;;;;;;39.13;17.42;;;;;;;3.49;94.61;103408.34;5104815;28;20101;-77
2022/01/25 03:07:58;;;;;;;35.53;16.90;;;;;;;3.64;94.75;103425.34;5105434;28;20052;-77
2022/01/25 03:10:33;;;;;;;42.45;17.63;;;;;;;3.67;94.03;103425.25;5102964;28;20370;-77
2022/01/25 03:12:59;;;;;;;45.15;18.17;;;;;;;3.59;94.19;103405.47;5089618;28;20470;-77
2022/01/25 03:15:26;;;;;;;40.70;18.15;;;;;;;3.67;93.68;103430.47;5089545;28;20028;-77
2022/01/25 03:17:58;;;;;;;39.78;17.02;;;;;;;3.69;94.71;103415.63;5086814;28;20063;-77
2022/01/25 03:20:49;;;;;;;35.75;17.52;;;;;;;3.63;93.83;103418.41;5091084;28;20415;-77
2022/01/25 03:23:20;;;;;;;41.40;16.33;;;;;;;3.65;94.39;103427.03;5106028;28;20035;-77
2022/01/25 03:25:47;;;;;;;39.97;16.95;;;;;;;3.68;94.02;103415.66;5109432;28;20498;-77
2022/01/25 03:28:14;;;;;;;33.58;17.10;;;;;;;3.58;93.75;103391.56;5102502;28;20364;-77
2022/01/25 03:30:39;;;;;;;36.22;17.10;;;;;;;3.62;93.84;103393.19;5103200;28;20054;-77
2022/01/25 03:33:05;;;;;;;34.90;15.93;;;;;;;3.75;93.73;103418.97;5076355;28;20027;-77
2022/01/25 03:35:30;;;;;;;35.08;17.23;;;;;;;3.76;94.30;103412.84;5089374;28;20040;-77
2022/01/25 03:37:55;;;;;;;42.83;17.48;;;;;;;3.63;94.18;103394.88;5082393;28;20040;-77
2022/01/25 03:40:21;;;;;;;36.28;16.42;;;;;;;3.75;94.31;103411.16;5074232;28;20016;-77
2022/01/25 03:42:48;;;;;;;37.72;17.67;;;;;;;3.71;93.51;103397.31;5084970;28;20019;-77
2022/01/25 03:45:19;;;;;;;43.63;18.13;;;;;;;3.78;93.52;103403.22;5067699;28;20047;-79
2022/01/25 03:47:58;;;;;;;38.20;17.70;;;;;;;3.78;93.53;103400.59;5089743;28;20073;-77
2022/01/25 03:50:24;;;;;;;41.10;17.33;;;;;;;3.78;94.02;103404.06;5105772;28;20054;-77
2022/01/25 03:52:49;;;;;;;37.60;16.35;;;;;;;3.75;93.56;103405.91;5103210;28;20484;-77
2022/01/25 03:55:15;;;;;;;38.28;17.88;;;;;;;3.76;93.52;103400.63;5083336;28;20036;-77
2022/01/25 03:57:40;;;;;;;40.22;19.27;;;;;;;3.55;93.50;103382.94;5080358;28;20135;-77
2022/01/25 04:00:07;;;;;;;37.00;17.55;;;;;;;3.67;93.45;103400.91;5083061;28;20035;-77
2022/01/25 04:02:35;;;;;;;38.38;17.67;;;;;;;3.72;93.65;103406.84;5082783;28;20025;-77
2022/01/25 04:05:01;;;;;;;37.80;17.20;;;;;;;3.71;93.77;103400.75;5082130;28;20123;-77
2022/01/25 04:07:42;;;;;;;36.25;17.17;;;;;;;3.65;93.90;103398.31;5082131;28;20024;-77
2022/01/25 04:10:09;;;;;;;38.55;16.83;;;;;;;3.63;93.54;103396.66;5081040;28;20028;-77
2022/01/25 04:12:34;;;;;;;44.97;19.67;;;;;;;3.63;94.03;103415.78;5084437;28;20500;-77
2022/01/25 04:15:01;;;;;;;36.40;17.10;;;;;;;3.67;94.29;103414.81;5086707;28;20033;-77
2022/01/25 04:17:26;;;;;;;33.72;15.30;;;;;;;3.70;95.20;103414.75;5067946;28;20071;-77
2022/01/25 04:20:13;;;;;;;37.85;18.08;;;;;;;3.68;94.51;103410.44;5082407;28;20089;-77
2022/01/25 04:25:22;;;;;;;38.28;16.50;;;;;;;3.57;94.68;103378.53;5082013;28;20097;-78
2022/01/25 04:27:48;;;;;;;41.85;19.35;;;;;;;3.68;94.64;103402.59;5068425;28;20095;-77
2022/01/25 04:30:13;;;;;;;40.58;18.85;;;;;;;3.61;94.38;103396.69;5083526;28;20483;-77
2022/01/25 04:35:58;;;;;;;42.35;17.35;;;;;;;3.66;95.24;103392.22;5081935;28;20040;-78
2022/01/25 04:54:14;;;;;;;43.33;17.13;;;;;;;3.55;95.29;103370.78;5081614;28;20047;-77
2022/01/25 04:57:24;;;;;;;41.72;19.17;;;;;;;3.58;95.99;103383.72;5084803;28;20074;-77
2022/01/25 04:59:41;;;;;;;35.60;15.52;;;;;;;3.50;95.65;103351.75;5082417;28;20045;-77
2022/01/25 05:02:16;;;;;;;39.17;19.50;;;;;;;3.69;96.35;103380.81;5085803;28;20024;-77
2022/01/25 05:04:48;;;;;;;36.00;16.35;;;;;;;3.62;95.67;103369.69;5066336;28;20021;-78
2022/01/25 05:07:29;;;;;;;36.88;15.75;;;;;;;3.67;95.43;103383.47;5064456;28;20025;-78
2022/01/25 05:09:56;;;;;;;45.58;18.48;;;;;;;3.65;95.48;103398.31;5080798;28;20028;-77
2022/01/25 05:12:40;;;;;;;40.40;17.20;;;;;;;3.47;95.98;103376.19;5066505;28;20024;-77
2022/01/25 05:15:21;;;;;;;41.65;18.55;;;;;;;3.62;96.41;103405.41;5083868;28;20020;-77
2022/01/25 05:18:03;;;;;;;37.38;17.08;;;;;;;3.64;95.49;103403.59;5090859;28;20100;-77
2022/01/25 05:23:12;;;;;;;37.10;17.50;;;;;;;3.65;95.95;103394.84;5085245;28;20055;-78
2022/01/25 05:25:38;;;;;;;38.65;16.05;;;;;;;3.61;95.86;103388.84;5068932;28;20031;-78
2022/01/25 05:28:03;;;;;;;48.65;19.05;;;;;;;3.66;96.11;103397.44;5061740;28;20033;-77
2022/01/25 05:30:28;;;;;;;46.65;19.30;;;;;;;3.67;96.42;103399.13;5085583;28;20451;-77
2022/01/25 05:32:54;;;;;;;34.13;15.82;;;;;;;3.57;96.46;103376.81;5084873;28;20377;-77
2022/01/25 05:35:19;;;;;;;37.63;17.33;;;;;;;3.64;96.00;103390.53;5062447;28;20161;-77
2022/01/25 05:37:45;;;;;;;46.05;18.13;;;;;;;3.66;96.21;103400.03;5080552;28;20028;-77
2022/01/25 05:40:16;;;;;;;43.22;18.38;;;;;;;3.56;96.38;103382.91;5080940;28;20080;-77
2022/01/25 05:43:00;;;;;;;39.95;17.83;;;;;;;3.58;95.98;103382.88;5081412;28;20035;-77
2022/01/25 05:45:38;;;;;;;35.47;15.48;;;;;;;3.67;96.31;103404.34;5081113;28;20028;-77
2022/01/25 05:48:04;;;;;;;39.17;15.05;;;;;;;3.68;96.51;103395.63;5089297;28;20047;-77
2022/01/25 05:50:29;;;;;;;35.88;15.70;;;;;;;3.62;96.16;103385.34;5088023;28;20028;-77
2022/01/25 05:52:54;;;;;;;40.13;17.75;;;;;;;3.46;95.83;103358.81;5069445;28;20483;-77
2022/01/25 05:55:20;;;;;;;38.28;17.98;;;;;;;3.37;96.15;103360.81;5063689;28;20044;-77
2022/01/25 05:57:45;;;;;;;37.13;17.30;;;;;;;3.41;96.19;103370.28;5067611;28;20153;-77
2022/01/25 06:00:11;;;;;;;36.00;17.15;;;;;;;3.56;96.81;103395.97;5082497;28;20028;-77
2022/01/25 06:02:37;;;;;;;39.92;17.85;;;;;;;3.62;97.05;103398.41;5075586;28;20036;-77
2022/01/25 06:05:04;;;;;;;38.05;18.13;;;;;;;3.61;96.87;103399.28;5084216;28;20028;-77
2022/01/25 06:07:30;;;;;;;46.25;17.95;;;;;;;3.61;96.76;103385.38;5082309;28;20037;-77
2022/01/25 06:09:55;;;;;;;34.95;16.63;;;;;;;3.67;96.28;103393.06;5078864;28;20070;-78
2022/01/25 06:12:20;;;;;;;39.22;17.25;;;;;;;3.64;96.44;103391.41;5090450;28;20031;-77
2022/01/25 06:14:46;;;;;;;33.63;16.60;;;;;;;3.42;96.40;103367.63;5066705;28;20492;-78
2022/01/25 06:17:11;;;;;;;42.83;16.33;;;;;;;3.45;97.02;103364.94;5082049;28;20037;-78
2022/01/25 06:19:37;;;;;;;34.88;17.60;;;;;;;3.42;97.00;103390.25;5067665;28;20115;-77
2022/01/25 06:22:02;;;;;;;42.75;17.13;;;;;;;3.58;97.95;103407.22;5081114;28;20028;-78
2022/01/25 06:24:28;;;;;;;47.20;17.67;;;;;;;3.57;97.88;103408.16;5083624;28;20078;-78
2022/01/25 06:26:53;;;;;;;37.15;17.48;;;;;;;3.55;97.60;103394.28;5083539;28;20028;-77
2022/01/25 06:29:19;;;;;;;34.95;16.38;;;;;;;3.61;97.94;103403.66;5077342;28;20033;-77
2022/01/25 06:31:47;;;;;;;52.20;19.88;;;;;;;3.49;97.76;103405.72;5069226;28;20064;-77
2022/01/25 06:34:14;;;;;;;39.13;16.50;;;;;;;3.50;98.18;103415.25;5077504;28;20365;-78
2022/01/25 06:36:39;;;;;;;39.15;15.85;;;;;;;3.56;97.89;103401.19;5081511;28;20051;-77
2022/01/25 06:39:05;;;;;;;44.38;20.67;;;;;;;3.43;98.51;103389.38;5081804;28;20035;-77
2022/01/25 06:41:33;;;;;;;40.75;17.58;;;;;;;3.48;98.19;103397.91;5078781;28;20127;-77
2022/01/25 06:43:58;;;;;;;56.13;28.38;;;;;;;3.48;97.90;103405.75;5076663;28;20035;-78
2022/01/25 06:46:23;;;;;;;71.75;33.35;;;;;;;3.53;98.62;103406.50;5081471;28;20484;-77
2022/01/25 06:48:49;;;;;;;50.50;19.80;;;;;;;3.57;98.61;103402.91;5081572;28;20028;-77
2022/01/25 06:51:14;;;;;;;51.08;23.58;;;;;;;3.41;98.86;103376.34;5078956;28;20024;-76
2022/01/25 06:53:40;;;;;;;45.30;18.90;;;;;;;3.60;98.80;103402.81;5062853;28;20033;-77
2022/01/25 06:56:06;;;;;;;44.55;21.35;;;;;;;3.64;98.10;103406.22;5081308;28;20028;-78
2022/01/25 06:58:32;;;;;;;49.95;24.45;;;;;;;3.63;98.44;103402.72;5078685;28;20048;-77
2022/01/25 07:00:58;;;;;;;49.35;22.52;;;;;;;3.68;98.37;103406.09;5086561;28;20029;-77
2022/01/25 07:03:23;;;;;;;38.30;18.38;;;;;;;3.57;98.61;103384.63;5090697;28;20166;-77
2022/01/25 07:05:48;;;;;;;37.53;19.48;;;;;;;3.55;98.15;103403.84;5073911;28;20415;-77
2022/01/25 07:08:14;;;;;;;45.97;19.35;;;;;;;3.49;98.71;103395.28;5080713;28;20032;-77
2022/01/25 07:10:39;;;;;;;45.55;19.13;;;;;;;3.65;99.12;103402.69;5081374;28;20033;-77
2022/01/25 07:13:05;;;;;;;45.78;20.48;;;;;;;3.65;98.33;103402.69;5084710;28;20016;-77
2022/01/25 07:15:30;;;;;;;44.05;19.33;;;;;;;3.59;98.92;103406.31;5081933;28;20089;-77
2022/01/25 07:17:56;;;;;;;43.95;20.65;;;;;;;3.60;99.41;103407.19;5086159;28;20032;-77
2022/01/25 07:20:21;;;;;;;41.50;20.67;;;;;;;3.60;98.98;103396.75;5088912;28;20106;-77
2022/01/25 07:22:47;;;;;;;51.47;21.35;;;;;;;3.51;99.41;103376.97;5090397;28;20029;-77
2022/01/25 07:25:13;;;;;;;42.58;19.90;;;;;;;3.60;98.16;103401.97;5087890;28;20024;-77
2022/01/25 07:27:38;;;;;;;40.30;21.88;;;;;;;3.55;98.97;103399.50;5083968;28;20040;-77
2022/01/25 07:30:06;;;;;;;44.63;19.95;;;;;;;3.50;98.87;103394.38;5081714;28;20035;-78
2022/01/25 07:32:32;;;;;;;39.63;19.23;;;;;;;3.62;98.75;103410.63;5088312;28;20030;-76
2022/01/25 07:34:57;;;;;;;45.80;19.58;;;;;;;3.62;99.54;103395.81;5080086;28;20016;-77
2022/01/25 07:37:23;;;;;;;41.92;18.17;;;;;;;3.62;98.80;103401.03;5087496;28;20024;-77
2022/01/25 07:39:48;;;;;;;50.10;20.83;;;;;;;3.56;99.42;103395.13;5086164;28;20016;-76
2022/01/25 07:42:15;;;;;;;43.00;19.20;;;;;;;3.44;99.66;103376.28;5086898;28;20107;-76
2022/01/25 07:44:41;;;;;;;45.40;19.45;;;;;;;3.56;98.75;103403.81;5082871;28;20024;-76
2022/01/25 07:47:07;;;;;;;37.67;18.65;;;;;;;3.39;99.26;103378.13;5085638;28;20051;-77
2022/01/25 07:49:32;;;;;;;39.20;17.10;;;;;;;3.60;99.84;103405.44;5089283;28;20028;-77
2022/01/25 07:51:58;;;;;;;42.10;18.75;;;;;;;3.59;99.01;103390.66;5083571;28;20047;-77
2022/01/25 07:54:25;;;;;;;40.15;16.55;;;;;;;3.68;99.07;103400.88;5084126;28;20032;-77
2022/01/25 07:56:51;;;;;;;48.15;17.30;;;;;;;3.46;98.77;103371.88;5090381;28;20036;-77
2022/01/25 07:59:17;;;;;;;43.85;18.70;;;;;;;3.67;99.04;103414.81;5081470;28;20508;-77
2022/01/25 08:01:42;;;;;;;41.60;18.30;;;;;;;3.57;98.42;103391.59;5088847;28;20462;-77
2022/01/25 08:04:09;;;;;;;38.17;17.42;;;;;;;3.68;98.82;103413.91;5066911;28;20033;-77
2022/01/25 08:06:36;;;;;;;42.58;18.33;;;;;;;3.69;98.29;103397.34;5087675;28;20020;-76
2022/01/25 08:09:03;;;;;;;39.78;18.67;;;;;;;3.74;98.09;103406.81;5084947;28;20081;-77
2022/01/25 08:11:28;;;;;;;40.53;17.23;;;;;;;3.71;98.85;103400.75;5080170;28;20032;-77
2022/01/25 08:14:00;;;;;;;41.67;17.35;;;;;;;3.73;98.02;103408.56;5092858;28;20029;-77
2022/01/25 08:16:27;;;;;;;37.17;17.50;;;;;;;3.77;99.14;103404.09;5085507;28;20112;-77
2022/01/25 08:18:52;;;;;;;38.42;17.73;;;;;;;3.79;97.98;103400.56;5084604;28;20028;-76
2022/01/25 08:21:18;;;;;;;39.42;17.23;;;;;;;3.81;98.41;103393.53;5082057;28;20028;-76
2022/01/25 08:23:43;;;;;;;35.03;18.00;;;;;;;3.70;98.10;103383.41;5085661;28;20032;-76
2022/01/25 08:26:08;;;;;;;38.60;18.23;;;;;;;3.74;98.02;103388.53;5081191;28;20028;-76
2022/01/25 08:28:34;;;;;;;45.08;18.98;;;;;;;3.85;98.46;103409.97;5072827;28;20094;-77
2022/01/25 08:30:59;;;;;;;38.55;16.17;;;;;;;3.85;97.65;103412.56;5080138;28;20063;-77
2022/01/25 08:33:25;;;;;;;39.90;16.75;;;;;;;3.90;98.21;103413.31;5082330;28;20032;-77
2022/01/25 08:35:50;;;;;;;40.13;17.45;;;;;;;3.89;98.03;103424.66;5083009;28;20036;-77
2022/01/25 08:38:15;;;;;;;45.45;18.33;;;;;;;3.89;97.66;103408.97;5086016;28;20418;-77
2022/01/25 08:40:41;;;;;;;45.00;19.60;;;;;;;3.86;98.05;103420.38;5072693;28;20032;-76
2022/01/25 08:43:06;;;;;;;40.45;17.05;;;;;;;3.87;98.04;103426.47;5080038;28;20451;-77
2022/01/25 08:45:32;;;;;;;41.67;17.40;;;;;;;3.82;97.73;103403.09;5087260;28;20085;-77
2022/01/25 08:47:57;;;;;;;49.58;18.58;;;;;;;3.89;97.13;103415.06;5064260;28;20032;-77
2022/01/25 08:50:24;;;;;;;42.85;19.38;;;;;;;3.92;98.18;103419.38;5080761;28;20032;-77
2022/01/25 08:52:50;;;;;;;41.92;17.67;;;;;;;3.79;97.84;103390.13;5088120;28;20123;-77
2022/01/25 08:55:15;;;;;;;72.15;32.17;;;;;;;3.95;96.93;103418.41;5071407;28;20104;-76
2022/01/25 08:57:40;;;;;;;56.63;24.17;;;;;;;3.82;97.06;103399.63;5087370;28;20048;-76
2022/01/25 09:00:09;;;;;;;60.70;24.95;;;;;;;3.97;98.03;103419.22;5071450;28;20069;-76
2022/01/25 09:02:35;;;;;;;44.97;22.15;;;;;;;3.84;97.81;103395.22;5087238;28;20043;-77
2022/01/25 09:05:00;;;;;;;45.72;19.02;;;;;;;3.90;97.54;103410.72;5079231;28;20085;-76
2022/01/25 09:07:26;;;;;;;48.88;23.30;;;;;;;3.83;97.73;103415.25;5105658;28;20035;-77
2022/01/25 09:09:51;;;;;;;53.20;20.88;;;;;;;3.82;98.25;103410.91;5107044;28;20035;-77
2022/01/25 09:12:16;;;;;;;54.30;24.85;;;;;;;3.63;97.60;103396.66;5095025;28;20061;-77
2022/01/25 09:14:43;;;;;;;50.55;19.92;;;;;;;3.56;98.76;103395.97;5058404;28;20078;-76
2022/01/25 09:17:10;;;;;;;53.75;20.00;;;;;;;3.61;98.68;103391.47;5079455;28;20097;-77
2022/01/25 09:19:38;;;;;;;42.63;21.08;;;;;;;3.76;99.27;103418.06;5084556;28;20032;-76
2022/01/25 09:22:08;;;;;;;51.45;20.40;;;;;;;3.76;99.49;103416.31;5090220;28;20165;-76
2022/01/25 09:24:34;;;;;;;51.60;25.73;;;;;;;3.67;99.35;103413.97;5110180;28;20028;-76
2022/01/25 09:27:00;;;;;;;46.38;18.77;;;;;;;3.74;99.79;103427.69;5078822;28;20058;-76
2022/01/25 09:29:25;;;;;;;51.20;21.50;;;;;;;3.62;99.06;103427.16;5088299;28;20073;-76
2022/01/25 09:31:50;;;;;;;50.72;21.58;;;;;;;3.57;100.00;103413.38;5091808;28;20032;-76
2022/01/25 09:34:16;;;;;;;48.70;22.08;;;;;;;3.57;100.00;103430.75;5102635;28;20321;-76
2022/01/25 09:36:42;;;;;;;52.92;22.63;;;;;;;3.63;99.89;103428.84;5110025;28;20032;-76
2022/01/25 09:39:07;;;;;;;48.78;18.83;;;;;;;3.56;100.00;103406.41;5106935;28;20095;-76
2022/01/25 09:41:33;;;;;;;47.13;21.77;;;;;;;3.64;100.00;103422.75;5107294;28;20028;-76
2022/01/25 09:43:58;;;;;;;48.08;22.73;;;;;;;3.70;100.00;103430.41;5102644;28;20023;-76
2022/01/25 09:46:24;;;;;;;39.20;17.48;;;;;;;3.76;100.00;103433.75;5086999;28;20122;-76
2022/01/25 09:48:49;;;;;;;47.08;19.02;;;;;;;3.71;100.00;103434.72;5105350;28;20060;-77
2022/01/25 09:51:18;;;;;;;46.95;19.88;;;;;;;3.82;100.00;103444.88;5090760;28;20028;-77
2022/01/25 09:53:44;;;;;;;47.03;21.38;;;;;;;3.83;99.64;103440.50;5108406;28;20028;-77
2022/01/25 09:56:09;;;;;;;48.30;20.17;;;;;;;3.90;99.07;103452.53;5085709;28;20081;-76
2022/01/25 09:58:36;;;;;;;44.67;20.63;;;;;;;3.88;99.95;103449.94;5104464;28;20070;-76
2022/01/25 10:01:04;;;;;;;46.15;20.73;;;;;;;3.94;99.79;103453.28;5082466;28;21610;-76
2022/01/25 10:03:39;;;;;;;42.90;18.92;;;;;;;3.92;99.37;103453.34;5087470;28;20045;-76
2022/01/25 10:06:16;;;;;;;51.30;21.25;;;;;;;3.87;99.17;103457.81;5112189;28;20034;-76
2022/01/25 10:08:42;;;;;;;43.17;20.98;;;;;;;3.92;99.58;103461.16;5079456;28;20462;-77
2022/01/25 10:11:14;;;;;;;39.58;17.48;;;;;;;3.95;100.00;103455.84;5092338;28;20101;-76
2022/01/25 10:13:43;;;;;;;39.95;19.75;;;;;;;3.90;99.47;103458.59;5101597;28;20028;-76
2022/01/25 10:16:17;;;;;;;51.45;19.63;;;;;;;3.94;99.16;103467.19;5085873;28;20028;-76
2022/01/25 10:18:44;;;;;;;41.28;17.75;;;;;;;3.95;99.32;103460.22;5088093;28;20024;-76
2022/01/25 10:21:19;;;;;;;44.17;19.83;;;;;;;3.95;100.00;103461.06;5104872;28;20047;-77
2022/01/25 10:24:13;;;;;;;35.20;17.48;;;;;;;3.99;99.01;103462.72;5098623;28;20025;-77
2022/01/25 10:26:41;;;;;;;41.92;18.75;;;;;;;3.94;99.56;103464.56;5111284;28;20066;-77
2022/01/25 10:29:08;;;;;;;46.17;20.67;;;;;;;3.80;99.50;103440.59;5102533;28;20032;-77
2022/01/25 10:31:42;;;;;;;42.88;18.58;;;;;;;3.87;99.22;103457.81;5103214;28;20026;-77
2022/01/25 10:34:09;;;;;;;39.97;19.30;;;;;;;4.01;99.86;103481.81;5089906;28;20518;-77
2022/01/25 10:36:49;;;;;;;47.28;19.00;;;;;;;3.94;100.00;103463.72;5100052;28;20123;-76
2022/01/25 10:39:25;;;;;;;42.90;19.80;;;;;;;4.08;100.00;103478.13;5102030;28;20051;-76
2022/01/25 10:41:51;;;;;;;44.15;19.45;;;;;;;4.10;99.96;103478.09;5106448;27;20027;-76
2022/01/25 10:44:17;;;;;;;45.22;18.42;;;;;;;4.16;99.87;103477.03;5095374;28;20035;-76
2022/01/25 10:46:42;;;;;;;42.55;17.40;;;;;;;4.18;100.00;103477.84;5088624;28;20088;-76
2022/01/25 10:49:15;;;;;;;48.78;20.55;;;;;;;4.21;100.00;103477.78;5107465;28;20081;-76
2022/01/25 10:51:49;;;;;;;48.10;20.25;;;;;;;4.22;100.00;103479.47;5114354;28;20875;-76
2022/01/25 10:54:17;;;;;;;45.58;18.50;;;;;;;4.17;100.00;103465.69;5093691;28;20076;-76
2022/01/25 10:56:56;;;;;;;49.65;20.13;;;;;;;4.19;99.84;103469.13;5104683;28;20491;-76
2022/01/25 10:59:32;;;;;;;45.50;21.25;;;;;;;4.10;100.00;103454.56;5099942;28;20529;-77
2022/01/25 11:02:00;;;;;;;38.55;17.67;;;;;;;4.01;100.00;103437.38;5109191;28;20127;-77
2022/01/25 11:05:03;;;;;;;50.13;19.70;;;;;;;4.22;100.00;103463.78;5106294;28;20035;-77
2022/01/25 11:07:40;;;;;;;39.42;17.92;;;;;;;4.29;100.00;103457.47;5105968;28;20024;-76
2022/01/25 11:10:08;;;;;;;43.80;19.50;;;;;;;4.37;100.00;103452.88;5110039;28;20066;-76
2022/01/25 11:12:39;;;;;;;44.53;18.05;;;;;;;4.33;100.00;103456.50;5107058;28;20067;-76
2022/01/25 11:15:06;;;;;;;49.00;19.45;;;;;;;4.35;100.00;103454.69;5088556;28;20057;-77
2022/01/25 11:17:33;;;;;;;45.22;21.80;;;;;;;4.33;99.98;103448.66;5100246;28;20061;-77
2022/01/25 11:20:00;;;;;;;48.67;19.95;;;;;;;4.17;99.91;103426.50;5090728;28;20534;-77
2022/01/25 11:22:27;;;;;;;46.25;19.23;;;;;;;4.34;100.00;103445.16;5088313;28;20043;-77
2022/01/25 11:25:05;;;;;;;43.38;19.40;;;;;;;4.39;100.00;103440.63;5084709;28;20383;-76
2022/01/25 11:27:31;;;;;;;46.50;19.80;;;;;;;4.41;100.00;103440.59;5106401;28;20398;-76
2022/01/25 11:30:00;;;;;;;49.97;19.42;;;;;;;4.26;100.00;103413.13;5103331;28;20476;-76
2022/01/25 11:32:31;;;;;;;45.60;18.08;;;;;;;4.38;100.00;103430.19;5103999;28;20044;-77
2022/01/25 11:34:58;;;;;;;47.20;19.42;;;;;;;4.37;100.00;103415.44;5080677;28;20023;-77
2022/01/25 11:37:54;;;;;;;48.00;18.98;;;;;;;4.38;100.00;103432.81;5080412;28;20430;-77
2022/01/25 11:40:27;;;;;;;44.00;17.70;;;;;;;4.36;100.00;103434.66;5023464;28;20038;-77
2022/01/25 11:42:56;;;;;;;47.65;21.55;;;;;;;4.34;100.00;103426.84;5030552;28;20041;-76
2022/01/25 11:45:24;;;;;;;43.55;18.70;;;;;;;4.24;100.00;103409.72;5025788;28;20098;-76
2022/01/25 11:47:51;;;;;;;42.17;18.98;;;;;;;4.43;100.00;103429.19;5027339;28;20102;-77
2022/01/25 11:50:18;;;;;;;47.65;19.73;;;;;;;4.46;100.00;103418.59;5028185;28;20044;-77
2022/01/25 11:52:52;;;;;;;50.05;20.45;;;;;;;4.31;100.00;103401.66;5022142;28;20025;-77
2022/01/25 11:55:20;;;;;;;44.17;19.48;;;;;;;4.41;100.00;103411.81;5028427;28;20085;-77
2022/01/25 11:57:53;;;;;;;44.63;21.17;;;;;;;4.36;100.00;103411.97;5029103;28;20045;-77
2022/01/25 12:00:35;;;;;;;51.15;21.55;;;;;;;4.16;100.00;103391.66;5011351;28;20044;-77
2022/01/25 12:03:01;;;;;;;49.58;20.42;;;;;;;4.32;100.00;103421.66;5027670;28;20042;-77
2022/01/25 12:05:28;;;;;;;47.03;18.75;;;;;;;4.26;100.00;103394.84;5028962;28;20393;-77
2022/01/25 12:08:09;;;;;;;49.22;20.02;;;;;;;4.28;100.00;103385.19;5008039;28;20034;-77
2022/01/25 12:10:41;;;;;;;47.42;19.08;;;;;;;4.38;100.00;103393.59;5026106;28;20128;-77
2022/01/25 12:13:23;;;;;;;46.88;18.23;;;;;;;4.52;100.00;103407.13;5027736;28;20505;-77
2022/01/25 12:16:21;;;;;;;46.28;20.27;;;;;;;4.52;100.00;103410.56;5033585;28;20038;-77
2022/01/25 12:19:01;;;;;;;45.47;18.55;;;;;;;4.41;100.00;103396.13;5099607;27;20028;-77
2022/01/25 12:22:12;;;;;;;40.45;19.13;;;;;;;4.48;100.00;103408.13;5081413;28;20387;-76
2022/01/25 12:24:44;;;;;;;44.55;20.55;;;;;;;4.41;100.00;103402.22;4986386;28;20061;-75
2022/01/25 12:27:33;;;;;;;49.50;19.13;;;;;;;4.40;100.00;103397.91;5006502;28;20113;-75
2022/01/25 12:30:12;;;;;;;43.38;19.80;;;;;;;4.33;100.00;103394.63;5006689;28;20053;-76
2022/01/25 12:32:49;;;;;;;44.88;19.27;;;;;;;4.30;100.00;103394.69;4987039;28;20041;-76
2022/01/25 12:35:19;;;;;;;51.28;20.63;;;;;;;4.35;100.00;103393.72;5003974;28;20126;-76
2022/01/25 12:37:54;;;;;;;41.35;18.50;;;;;;;4.37;100.00;103397.97;5006780;28;20040;-76
2022/01/25 12:40:25;;;;;;;42.75;19.90;;;;;;;4.42;100.00;103397.84;5003322;28;20030;-76
2022/01/25 12:43:38;;;;;;;47.63;20.33;;;;;;;4.46;100.00;103389.84;4984472;28;20041;-75
2022/01/25 12:46:13;;;;;;;38.83;17.35;;;;;;;4.47;100.00;103390.72;4961930;28;20106;-76